sensor_id;sensor_type;location;lat;lon;timestamp;P1;durP1;ratioP1;P2;durP2;ratioP2
12212;SDS011;6169;44.158;22.788;2023-10-13T00:03:22;11.90;;;8.63;;
12212;SDS011;6169;44.158;22.788;2023-10-13T00:08:25;13.65;;;7.55;;
12212;SDS011;6169;44.158;22.788;2023-10-13T00:13:29;11.43;;;7.68;;
12212;SDS011;6169;44.158;22.788;2023-10-13T00:18:40;13.87;;;7.90;;
12212;SDS011;6169;44.158;22.788;2023-10-13T00:23:44;13.60;;;9.25;;
12212;SDS011;6169;44.158;22.788;2023-10-13T00:28:52;13.05;;;7.55;;
12212;SDS011;6169;44.158;22.788;2023-10-13T00:34:10;14.13;;;8.73;;
12212;SDS011;6169;44.158;22.788;2023-10-13T00:39:18;14.73;;;7.28;;
12212;SDS011;6169;44.158;22.788;2023-10-13T00:44:22;12.32;;;8.52;;
12212;SDS011;6169;44.158;22.788;2023-10-13T00:49:30;11.18;;;6.97;;
12212;SDS011;6169;44.158;22.788;2023-10-13T00:54:36;14.00;;;7.50;;
12212;SDS011;6169;44.158;22.788;2023-10-13T00:59:40;10.13;;;6.50;;
12212;SDS011;6169;44.158;22.788;2023-10-13T01:04:48;13.75;;;8.73;;
12212;SDS011;6169;44.158;22.788;2023-10-13T01:09:51;10.75;;;7.18;;
12212;SDS011;6169;44.158;22.788;2023-10-13T01:14:54;19.15;;;7.43;;
12212;SDS011;6169;44.158;22.788;2023-10-13T01:19:59;15.73;;;8.85;;
12212;SDS011;6169;44.158;22.788;2023-10-13T01:25:05;10.20;;;7.00;;
12212;SDS011;6169;44.158;22.788;2023-10-13T01:30:13;9.98;;;7.93;;
12212;SDS011;6169;44.158;22.788;2023-10-13T01:35:23;16.77;;;7.20;;
12212;SDS011;6169;44.158;22.788;2023-10-13T01:40:38;9.32;;;6.88;;
12212;SDS011;6169;44.158;22.788;2023-10-13T01:45:43;10.25;;;6.55;;
12212;SDS011;6169;44.158;22.788;2023-10-13T01:50:50;15.75;;;6.93;;
12212;SDS011;6169;44.158;22.788;2023-10-13T01:56:02;15.30;;;7.53;;
12212;SDS011;6169;44.158;22.788;2023-10-13T02:01:10;13.73;;;8.43;;
12212;SDS011;6169;44.158;22.788;2023-10-13T02:06:18;12.40;;;7.95;;
12212;SDS011;6169;44.158;22.788;2023-10-13T02:11:25;12.70;;;7.20;;
12212;SDS011;6169;44.158;22.788;2023-10-13T02:16:28;11.15;;;7.75;;
12212;SDS011;6169;44.158;22.788;2023-10-13T02:21:31;16.73;;;8.35;;
12212;SDS011;6169;44.158;22.788;2023-10-13T02:26:41;9.88;;;7.18;;
12212;SDS011;6169;44.158;22.788;2023-10-13T02:31:43;17.55;;;8.18;;
12212;SDS011;6169;44.158;22.788;2023-10-13T02:36:55;11.30;;;7.68;;
12212;SDS011;6169;44.158;22.788;2023-10-13T02:42:01;15.88;;;8.10;;
12212;SDS011;6169;44.158;22.788;2023-10-13T02:47:07;14.02;;;7.25;;
12212;SDS011;6169;44.158;22.788;2023-10-13T02:52:15;12.05;;;7.70;;
12212;SDS011;6169;44.158;22.788;2023-10-13T02:57:19;15.52;;;8.18;;
12212;SDS011;6169;44.158;22.788;2023-10-13T03:02:23;13.48;;;7.85;;
12212;SDS011;6169;44.158;22.788;2023-10-13T03:07:28;11.85;;;7.43;;
12212;SDS011;6169;44.158;22.788;2023-10-13T03:12:32;11.52;;;7.88;;
12212;SDS011;6169;44.158;22.788;2023-10-13T03:17:34;10.43;;;7.32;;
12212;SDS011;6169;44.158;22.788;2023-10-13T03:22:36;11.57;;;6.45;;
12212;SDS011;6169;44.158;22.788;2023-10-13T03:27:40;12.98;;;8.23;;
12212;SDS011;6169;44.158;22.788;2023-10-13T03:33:02;8.35;;;7.03;;
12212;SDS011;6169;44.158;22.788;2023-10-13T03:38:09;11.60;;;8.52;;
12212;SDS011;6169;44.158;22.788;2023-10-13T03:43:19;10.80;;;8.73;;
12212;SDS011;6169;44.158;22.788;2023-10-13T03:48:23;12.23;;;6.55;;
12212;SDS011;6169;44.158;22.788;2023-10-13T03:53:29;12.80;;;8.50;;
12212;SDS011;6169;44.158;22.788;2023-10-13T04:03:54;14.30;;;7.80;;
12212;SDS011;6169;44.158;22.788;2023-10-13T04:09:03;15.30;;;8.50;;
12212;SDS011;6169;44.158;22.788;2023-10-13T04:14:24;12.65;;;7.65;;
12212;SDS011;6169;44.158;22.788;2023-10-13T04:19:47;12.68;;;7.22;;
12212;SDS011;6169;44.158;22.788;2023-10-13T04:25:04;12.85;;;7.50;;
12212;SDS011;6169;44.158;22.788;2023-10-13T04:30:28;13.98;;;7.97;;
12212;SDS011;6169;44.158;22.788;2023-10-13T04:35:48;9.77;;;7.55;;
12212;SDS011;6169;44.158;22.788;2023-10-13T04:40:59;14.10;;;6.90;;
12212;SDS011;6169;44.158;22.788;2023-10-13T04:46:11;12.18;;;6.40;;
12212;SDS011;6169;44.158;22.788;2023-10-13T04:51:25;9.43;;;6.72;;
12212;SDS011;6169;44.158;22.788;2023-10-13T04:56:50;11.93;;;6.68;;
12212;SDS011;6169;44.158;22.788;2023-10-13T05:02:22;17.23;;;8.57;;
12212;SDS011;6169;44.158;22.788;2023-10-13T05:07:41;13.63;;;9.13;;
12212;SDS011;6169;44.158;22.788;2023-10-13T05:13:00;15.93;;;7.80;;
12212;SDS011;6169;44.158;22.788;2023-10-13T05:18:21;12.30;;;8.50;;
12212;SDS011;6169;44.158;22.788;2023-10-13T05:23:40;12.10;;;8.13;;
12212;SDS011;6169;44.158;22.788;2023-10-13T05:29:14;12.55;;;7.68;;
12212;SDS011;6169;44.158;22.788;2023-10-13T05:34:35;17.00;;;8.88;;
12212;SDS011;6169;44.158;22.788;2023-10-13T05:39:55;14.45;;;8.30;;
12212;SDS011;6169;44.158;22.788;2023-10-13T05:45:14;14.50;;;9.07;;
12212;SDS011;6169;44.158;22.788;2023-10-13T05:50:41;16.58;;;7.63;;
12212;SDS011;6169;44.158;22.788;2023-10-13T05:56:07;15.95;;;7.72;;
12212;SDS011;6169;44.158;22.788;2023-10-13T06:01:26;13.75;;;8.02;;
12212;SDS011;6169;44.158;22.788;2023-10-13T06:06:47;12.52;;;8.20;;
12212;SDS011;6169;44.158;22.788;2023-10-13T06:12:07;13.48;;;8.18;;
12212;SDS011;6169;44.158;22.788;2023-10-13T06:17:26;12.20;;;8.27;;
12212;SDS011;6169;44.158;22.788;2023-10-13T06:22:48;11.80;;;7.93;;
12212;SDS011;6169;44.158;22.788;2023-10-13T06:28:08;12.20;;;7.00;;
12212;SDS011;6169;44.158;22.788;2023-10-13T06:33:27;10.25;;;7.45;;
12212;SDS011;6169;44.158;22.788;2023-10-13T06:38:35;19.58;;;7.45;;
12212;SDS011;6169;44.158;22.788;2023-10-13T06:43:38;10.93;;;7.90;;
12212;SDS011;6169;44.158;22.788;2023-10-13T06:48:40;13.73;;;7.70;;
12212;SDS011;6169;44.158;22.788;2023-10-13T06:53:45;12.27;;;7.15;;
12212;SDS011;6169;44.158;22.788;2023-10-13T06:58:48;12.23;;;6.68;;
12212;SDS011;6169;44.158;22.788;2023-10-13T07:03:50;9.25;;;7.43;;
12212;SDS011;6169;44.158;22.788;2023-10-13T07:08:55;10.38;;;6.20;;
12212;SDS011;6169;44.158;22.788;2023-10-13T07:14:04;16.15;;;7.82;;
12212;SDS011;6169;44.158;22.788;2023-10-13T07:19:11;17.55;;;10.13;;
12212;SDS011;6169;44.158;22.788;2023-10-13T07:24:18;43.80;;;22.65;;
12212;SDS011;6169;44.158;22.788;2023-10-13T07:29:22;13.68;;;7.38;;
12212;SDS011;6169;44.158;22.788;2023-10-13T07:34:25;16.42;;;7.82;;
12212;SDS011;6169;44.158;22.788;2023-10-13T07:39:33;10.40;;;7.25;;
12212;SDS011;6169;44.158;22.788;2023-10-13T07:44:35;13.63;;;6.47;;
12212;SDS011;6169;44.158;22.788;2023-10-13T07:49:46;10.18;;;6.38;;
12212;SDS011;6169;44.158;22.788;2023-10-13T07:54:52;11.82;;;6.20;;
12212;SDS011;6169;44.158;22.788;2023-10-13T08:00:00;12.35;;;6.60;;
12212;SDS011;6169;44.158;22.788;2023-10-13T08:05:10;9.00;;;6.68;;
12212;SDS011;6169;44.158;22.788;2023-10-13T08:10:18;55.97;;;29.20;;
12212;SDS011;6169;44.158;22.788;2023-10-13T08:15:25;9.55;;;5.70;;
12212;SDS011;6169;44.158;22.788;2023-10-13T08:20:33;21.10;;;10.48;;
12212;SDS011;6169;44.158;22.788;2023-10-13T08:25:43;15.82;;;7.65;;
12212;SDS011;6169;44.158;22.788;2023-10-13T08:31:02;15.25;;;8.40;;
12212;SDS011;6169;44.158;22.788;2023-10-13T08:36:14;11.90;;;5.65;;
12212;SDS011;6169;44.158;22.788;2023-10-13T08:41:29;9.75;;;5.22;;
12212;SDS011;6169;44.158;22.788;2023-10-13T08:46:39;8.93;;;5.03;;
12212;SDS011;6169;44.158;22.788;2023-10-13T08:52:04;11.63;;;8.55;;
12212;SDS011;6169;44.158;22.788;2023-10-13T08:57:31;12.77;;;5.43;;
12212;SDS011;6169;44.158;22.788;2023-10-13T09:02:34;10.05;;;5.60;;
12212;SDS011;6169;44.158;22.788;2023-10-13T09:07:50;8.35;;;5.22;;
12212;SDS011;6169;44.158;22.788;2023-10-13T09:12:56;9.68;;;5.53;;
12212;SDS011;6169;44.158;22.788;2023-10-13T09:18:03;14.57;;;5.67;;
12212;SDS011;6169;44.158;22.788;2023-10-13T09:23:15;13.63;;;5.03;;
12212;SDS011;6169;44.158;22.788;2023-10-13T09:28:29;9.27;;;5.32;;
12212;SDS011;6169;44.158;22.788;2023-10-13T09:33:31;8.82;;;5.68;;
12212;SDS011;6169;44.158;22.788;2023-10-13T09:38:36;9.18;;;6.05;;
12212;SDS011;6169;44.158;22.788;2023-10-13T09:43:42;11.48;;;5.32;;
12212;SDS011;6169;44.158;22.788;2023-10-13T09:48:44;11.75;;;4.90;;
12212;SDS011;6169;44.158;22.788;2023-10-13T09:59:11;7.20;;;3.83;;
12212;SDS011;6169;44.158;22.788;2023-10-13T10:04:20;7.60;;;4.35;;
12212;SDS011;6169;44.158;22.788;2023-10-13T10:09:26;10.05;;;3.97;;
12212;SDS011;6169;44.158;22.788;2023-10-13T10:20:12;8.85;;;4.13;;
12212;SDS011;6169;44.158;22.788;2023-10-13T10:25:31;11.02;;;4.75;;
12212;SDS011;6169;44.158;22.788;2023-10-13T10:30:37;18.27;;;6.80;;
12212;SDS011;6169;44.158;22.788;2023-10-13T10:35:40;8.77;;;5.90;;
12212;SDS011;6169;44.158;22.788;2023-10-13T10:40:49;11.68;;;6.78;;
12212;SDS011;6169;44.158;22.788;2023-10-13T10:46:00;16.48;;;6.53;;
12212;SDS011;6169;44.158;22.788;2023-10-13T10:51:02;7.93;;;5.18;;
12212;SDS011;6169;44.158;22.788;2023-10-13T10:56:14;9.95;;;5.38;;
12212;SDS011;6169;44.158;22.788;2023-10-13T11:01:42;9.18;;;5.22;;
12212;SDS011;6169;44.158;22.788;2023-10-13T11:06:52;7.88;;;5.07;;
12212;SDS011;6169;44.158;22.788;2023-10-13T11:11:55;13.02;;;5.05;;
12212;SDS011;6169;44.158;22.788;2023-10-13T11:16:59;9.40;;;5.55;;
12212;SDS011;6169;44.158;22.788;2023-10-13T11:22:10;17.27;;;5.13;;
12212;SDS011;6169;44.158;22.788;2023-10-13T11:27:29;6.45;;;4.20;;
12212;SDS011;6169;44.158;22.788;2023-10-13T11:33:00;10.95;;;4.15;;
12212;SDS011;6169;44.158;22.788;2023-10-13T11:38:05;11.93;;;5.68;;
12212;SDS011;6169;44.158;22.788;2023-10-13T11:43:14;10.20;;;6.40;;
12212;SDS011;6169;44.158;22.788;2023-10-13T11:48:19;10.50;;;6.03;;
12212;SDS011;6169;44.158;22.788;2023-10-13T11:53:34;10.20;;;6.45;;
12212;SDS011;6169;44.158;22.788;2023-10-13T11:58:37;11.15;;;5.43;;
12212;SDS011;6169;44.158;22.788;2023-10-13T12:03:41;9.52;;;6.43;;
12212;SDS011;6169;44.158;22.788;2023-10-13T12:09:02;17.90;;;6.65;;
12212;SDS011;6169;44.158;22.788;2023-10-13T12:14:14;14.95;;;8.90;;
12212;SDS011;6169;44.158;22.788;2023-10-13T12:19:23;12.65;;;6.03;;
12212;SDS011;6169;44.158;22.788;2023-10-13T12:24:27;13.82;;;7.30;;
12212;SDS011;6169;44.158;22.788;2023-10-13T12:29:40;10.23;;;6.47;;
12212;SDS011;6169;44.158;22.788;2023-10-13T12:34:50;12.90;;;6.30;;
12212;SDS011;6169;44.158;22.788;2023-10-13T12:40:17;25.05;;;6.57;;
12212;SDS011;6169;44.158;22.788;2023-10-13T12:45:38;10.05;;;5.85;;
12212;SDS011;6169;44.158;22.788;2023-10-13T12:51:01;10.57;;;5.00;;
12212;SDS011;6169;44.158;22.788;2023-10-13T12:56:20;12.60;;;5.20;;
12212;SDS011;6169;44.158;22.788;2023-10-13T13:01:26;8.57;;;4.45;;
12212;SDS011;6169;44.158;22.788;2023-10-13T13:06:34;9.35;;;2.92;;
12212;SDS011;6169;44.158;22.788;2023-10-13T13:11:36;14.15;;;4.10;;
12212;SDS011;6169;44.158;22.788;2023-10-13T13:16:40;7.40;;;3.38;;
12212;SDS011;6169;44.158;22.788;2023-10-13T13:21:43;6.90;;;3.25;;
12212;SDS011;6169;44.158;22.788;2023-10-13T13:26:48;9.48;;;3.75;;
12212;SDS011;6169;44.158;22.788;2023-10-13T13:31:55;6.18;;;3.90;;
12212;SDS011;6169;44.158;22.788;2023-10-13T13:36:58;11.05;;;4.10;;
12212;SDS011;6169;44.158;22.788;2023-10-13T13:42:01;9.95;;;5.00;;
12212;SDS011;6169;44.158;22.788;2023-10-13T13:47:07;15.07;;;4.75;;
12212;SDS011;6169;44.158;22.788;2023-10-13T13:52:14;11.45;;;5.38;;
12212;SDS011;6169;44.158;22.788;2023-10-13T13:57:21;13.90;;;4.60;;
12212;SDS011;6169;44.158;22.788;2023-10-13T14:02:24;11.70;;;4.00;;
12212;SDS011;6169;44.158;22.788;2023-10-13T14:07:30;10.90;;;4.80;;
12212;SDS011;6169;44.158;22.788;2023-10-13T14:12:33;10.88;;;4.25;;
12212;SDS011;6169;44.158;22.788;2023-10-13T14:17:42;8.45;;;3.05;;
12212;SDS011;6169;44.158;22.788;2023-10-13T14:22:46;11.05;;;3.50;;
12212;SDS011;6169;44.158;22.788;2023-10-13T14:27:50;8.35;;;4.47;;
12212;SDS011;6169;44.158;22.788;2023-10-13T14:32:52;9.93;;;5.63;;
12212;SDS011;6169;44.158;22.788;2023-10-13T14:38:00;11.00;;;6.05;;
12212;SDS011;6169;44.158;22.788;2023-10-13T14:43:04;20.75;;;7.72;;
12212;SDS011;6169;44.158;22.788;2023-10-13T14:48:06;16.33;;;6.72;;
12212;SDS011;6169;44.158;22.788;2023-10-13T14:53:13;15.32;;;6.53;;
12212;SDS011;6169;44.158;22.788;2023-10-13T14:58:19;14.40;;;4.85;;
12212;SDS011;6169;44.158;22.788;2023-10-13T15:03:26;12.32;;;3.85;;
12212;SDS011;6169;44.158;22.788;2023-10-13T15:08:30;8.20;;;3.20;;
12212;SDS011;6169;44.158;22.788;2023-10-13T15:13:33;5.88;;;2.83;;
12212;SDS011;6169;44.158;22.788;2023-10-13T15:18:35;12.55;;;3.00;;
12212;SDS011;6169;44.158;22.788;2023-10-13T15:23:39;11.45;;;3.25;;
12212;SDS011;6169;44.158;22.788;2023-10-13T15:28:43;11.52;;;4.22;;
12212;SDS011;6169;44.158;22.788;2023-10-13T15:33:50;12.82;;;3.58;;
12212;SDS011;6169;44.158;22.788;2023-10-13T15:38:56;8.77;;;2.65;;
12212;SDS011;6169;44.158;22.788;2023-10-13T15:43:58;8.68;;;3.05;;
12212;SDS011;6169;44.158;22.788;2023-10-13T15:49:01;7.45;;;2.85;;
12212;SDS011;6169;44.158;22.788;2023-10-13T15:54:07;17.60;;;4.43;;
12212;SDS011;6169;44.158;22.788;2023-10-13T15:59:16;10.38;;;3.10;;
12212;SDS011;6169;44.158;22.788;2023-10-13T16:04:18;22.27;;;5.78;;
12212;SDS011;6169;44.158;22.788;2023-10-13T16:09:22;24.98;;;9.27;;
12212;SDS011;6169;44.158;22.788;2023-10-13T16:14:24;17.52;;;8.88;;
12212;SDS011;6169;44.158;22.788;2023-10-13T16:19:28;17.73;;;7.53;;
12212;SDS011;6169;44.158;22.788;2023-10-13T16:24:33;41.95;;;14.48;;
12212;SDS011;6169;44.158;22.788;2023-10-13T16:29:37;26.55;;;10.88;;
12212;SDS011;6169;44.158;22.788;2023-10-13T16:34:43;27.13;;;10.20;;
12212;SDS011;6169;44.158;22.788;2023-10-13T16:39:46;36.90;;;13.23;;
12212;SDS011;6169;44.158;22.788;2023-10-13T16:44:50;36.15;;;13.48;;
12212;SDS011;6169;44.158;22.788;2023-10-13T16:49:52;37.42;;;11.85;;
12212;SDS011;6169;44.158;22.788;2023-10-13T16:54:55;39.17;;;11.30;;
12212;SDS011;6169;44.158;22.788;2023-10-13T16:59:58;31.33;;;10.13;;
12212;SDS011;6169;44.158;22.788;2023-10-13T17:05:04;31.67;;;10.73;;
12212;SDS011;6169;44.158;22.788;2023-10-13T17:10:10;23.85;;;9.02;;
12212;SDS011;6169;44.158;22.788;2023-10-13T17:15:14;15.75;;;6.85;;
12212;SDS011;6169;44.158;22.788;2023-10-13T17:20:19;39.05;;;9.27;;
12212;SDS011;6169;44.158;22.788;2023-10-13T17:25:23;24.17;;;8.50;;
12212;SDS011;6169;44.158;22.788;2023-10-13T17:30:26;25.85;;;8.05;;
12212;SDS011;6169;44.158;22.788;2023-10-13T17:35:28;18.63;;;7.45;;
12212;SDS011;6169;44.158;22.788;2023-10-13T17:40:33;20.33;;;8.50;;
12212;SDS011;6169;44.158;22.788;2023-10-13T17:45:35;25.92;;;8.82;;
12212;SDS011;6169;44.158;22.788;2023-10-13T17:50:37;25.60;;;8.00;;
12212;SDS011;6169;44.158;22.788;2023-10-13T17:55:41;18.67;;;7.80;;
12212;SDS011;6169;44.158;22.788;2023-10-13T18:00:43;21.88;;;10.52;;
12212;SDS011;6169;44.158;22.788;2023-10-13T18:05:45;27.85;;;9.95;;
12212;SDS011;6169;44.158;22.788;2023-10-13T18:10:52;30.65;;;9.40;;
12212;SDS011;6169;44.158;22.788;2023-10-13T18:15:55;20.50;;;8.98;;
12212;SDS011;6169;44.158;22.788;2023-10-13T18:21:02;23.42;;;11.32;;
12212;SDS011;6169;44.158;22.788;2023-10-13T18:26:09;16.75;;;9.20;;
12212;SDS011;6169;44.158;22.788;2023-10-13T18:31:13;19.98;;;8.63;;
12212;SDS011;6169;44.158;22.788;2023-10-13T18:36:17;23.95;;;9.48;;
12212;SDS011;6169;44.158;22.788;2023-10-13T18:41:21;20.77;;;8.05;;
12212;SDS011;6169;44.158;22.788;2023-10-13T18:46:24;21.67;;;9.45;;
12212;SDS011;6169;44.158;22.788;2023-10-13T18:51:26;18.30;;;8.27;;
12212;SDS011;6169;44.158;22.788;2023-10-13T18:56:34;22.42;;;8.52;;
12212;SDS011;6169;44.158;22.788;2023-10-13T19:01:36;27.13;;;9.63;;
12212;SDS011;6169;44.158;22.788;2023-10-13T19:06:39;21.88;;;10.57;;
12212;SDS011;6169;44.158;22.788;2023-10-13T19:11:43;35.03;;;13.52;;
12212;SDS011;6169;44.158;22.788;2023-10-13T19:16:45;38.90;;;17.70;;
12212;SDS011;6169;44.158;22.788;2023-10-13T19:21:47;52.53;;;22.42;;
12212;SDS011;6169;44.158;22.788;2023-10-13T19:26:51;57.17;;;32.17;;
12212;SDS011;6169;44.158;22.788;2023-10-13T19:31:54;46.10;;;19.42;;
12212;SDS011;6169;44.158;22.788;2023-10-13T19:36:56;44.58;;;20.27;;
12212;SDS011;6169;44.158;22.788;2023-10-13T19:42:05;44.63;;;22.20;;
12212;SDS011;6169;44.158;22.788;2023-10-13T19:47:07;50.17;;;23.17;;
12212;SDS011;6169;44.158;22.788;2023-10-13T19:52:14;53.03;;;23.70;;
12212;SDS011;6169;44.158;22.788;2023-10-13T19:57:19;52.05;;;25.38;;
12212;SDS011;6169;44.158;22.788;2023-10-13T20:02:21;48.72;;;26.95;;
12212;SDS011;6169;44.158;22.788;2023-10-13T20:07:23;49.30;;;26.75;;
12212;SDS011;6169;44.158;22.788;2023-10-13T20:12:28;46.00;;;23.98;;
12212;SDS011;6169;44.158;22.788;2023-10-13T20:17:30;50.92;;;25.60;;
12212;SDS011;6169;44.158;22.788;2023-10-13T20:22:32;40.60;;;22.83;;
12212;SDS011;6169;44.158;22.788;2023-10-13T20:27:35;51.08;;;27.40;;
12212;SDS011;6169;44.158;22.788;2023-10-13T20:32:39;42.22;;;20.58;;
12212;SDS011;6169;44.158;22.788;2023-10-13T20:37:41;36.72;;;18.45;;
12212;SDS011;6169;44.158;22.788;2023-10-13T20:42:46;38.80;;;15.30;;
12212;SDS011;6169;44.158;22.788;2023-10-13T20:47:49;40.35;;;15.95;;
12212;SDS011;6169;44.158;22.788;2023-10-13T20:52:52;35.53;;;13.15;;
12212;SDS011;6169;44.158;22.788;2023-10-13T20:57:55;44.28;;;23.55;;
12212;SDS011;6169;44.158;22.788;2023-10-13T21:02:58;36.22;;;17.85;;
12212;SDS011;6169;44.158;22.788;2023-10-13T21:08:00;25.10;;;13.30;;
12212;SDS011;6169;44.158;22.788;2023-10-13T21:13:04;28.10;;;12.35;;
12212;SDS011;6169;44.158;22.788;2023-10-13T21:18:08;20.80;;;12.50;;
12212;SDS011;6169;44.158;22.788;2023-10-13T21:23:11;31.70;;;12.07;;
12212;SDS011;6169;44.158;22.788;2023-10-13T21:28:14;32.42;;;11.05;;
12212;SDS011;6169;44.158;22.788;2023-10-13T21:33:17;26.65;;;11.43;;
12212;SDS011;6169;44.158;22.788;2023-10-13T21:38:20;31.70;;;13.00;;
12212;SDS011;6169;44.158;22.788;2023-10-13T21:43:24;23.40;;;11.00;;
12212;SDS011;6169;44.158;22.788;2023-10-13T21:48:26;27.98;;;11.93;;
12212;SDS011;6169;44.158;22.788;2023-10-13T21:53:28;19.70;;;10.70;;
12212;SDS011;6169;44.158;22.788;2023-10-13T21:58:32;52.65;;;19.35;;
12212;SDS011;6169;44.158;22.788;2023-10-13T22:03:34;43.88;;;21.35;;
12212;SDS011;6169;44.158;22.788;2023-10-13T22:08:36;31.25;;;13.77;;
12212;SDS011;6169;44.158;22.788;2023-10-13T22:13:40;31.38;;;13.93;;
12212;SDS011;6169;44.158;22.788;2023-10-13T22:18:42;24.17;;;14.07;;
12212;SDS011;6169;44.158;22.788;2023-10-13T22:23:46;22.65;;;12.02;;
12212;SDS011;6169;44.158;22.788;2023-10-13T22:28:50;29.83;;;13.00;;
12212;SDS011;6169;44.158;22.788;2023-10-13T22:33:52;23.00;;;12.52;;
12212;SDS011;6169;44.158;22.788;2023-10-13T22:38:55;20.40;;;12.10;;
12212;SDS011;6169;44.158;22.788;2023-10-13T22:44:00;23.98;;;12.20;;
12212;SDS011;6169;44.158;22.788;2023-10-13T22:49:05;23.13;;;12.38;;
12212;SDS011;6169;44.158;22.788;2023-10-13T22:54:07;20.27;;;11.40;;
12212;SDS011;6169;44.158;22.788;2023-10-13T22:59:13;20.77;;;12.35;;
12212;SDS011;6169;44.158;22.788;2023-10-13T23:04:15;20.20;;;11.60;;
12212;SDS011;6169;44.158;22.788;2023-10-13T23:09:17;29.65;;;11.23;;
12212;SDS011;6169;44.158;22.788;2023-10-13T23:14:27;19.58;;;11.85;;
12212;SDS011;6169;44.158;22.788;2023-10-13T23:19:32;30.33;;;12.52;;
12212;SDS011;6169;44.158;22.788;2023-10-13T23:24:36;19.67;;;11.43;;
12212;SDS011;6169;44.158;22.788;2023-10-13T23:29:41;26.60;;;13.77;;
12212;SDS011;6169;44.158;22.788;2023-10-13T23:34:46;25.25;;;12.77;;
12212;SDS011;6169;44.158;22.788;2023-10-13T23:39:48;22.90;;;12.20;;
12212;SDS011;6169;44.158;22.788;2023-10-13T23:44:54;20.20;;;11.60;;
12212;SDS011;6169;44.158;22.788;2023-10-13T23:50:06;23.30;;;11.65;;
12212;SDS011;6169;44.158;22.788;2023-10-13T23:55:16;19.65;;;11.43;;
